sensor_id;sensor_type;location;lat;lon;timestamp;pressure;altitude;pressure_sealevel;temperature
79756;BMP280;69239;50.678;12.280;2024-03-29T00:00:10;96068.59;;;7.38
79756;BMP280;69239;50.678;12.280;2024-03-29T00:02:35;96069.25;;;7.35
79756;BMP280;69239;50.678;12.280;2024-03-29T00:05:00;96064.53;;;7.28
79756;BMP280;69239;50.678;12.280;2024-03-29T00:07:28;96069.59;;;7.25
79756;BMP280;69239;50.678;12.280;2024-03-29T00:09:53;96075.53;;;7.21
79756;BMP280;69239;50.678;12.280;2024-03-29T00:12:18;96069.56;;;7.12
79756;BMP280;69239;50.678;12.280;2024-03-29T00:14:43;96082.66;;;7.12
79756;BMP280;69239;50.678;12.280;2024-03-29T00:17:09;96087.75;;;7.09
79756;BMP280;69239;50.678;12.280;2024-03-29T00:19:34;96099.47;;;7.03
79756;BMP280;69239;50.678;12.280;2024-03-29T00:21:59;96102.41;;;7.01
79756;BMP280;69239;50.678;12.280;2024-03-29T00:24:24;96106.09;;;7.00
79756;BMP280;69239;50.678;12.280;2024-03-29T00:26:51;96101.53;;;6.97
79756;BMP280;69239;50.678;12.280;2024-03-29T00:29:16;96100.19;;;6.91
79756;BMP280;69239;50.678;12.280;2024-03-29T00:31:41;96102.91;;;6.95
79756;BMP280;69239;50.678;12.280;2024-03-29T00:34:06;96097.56;;;6.91
79756;BMP280;69239;50.678;12.280;2024-03-29T00:36:32;96105.69;;;6.89
79756;BMP280;69239;50.678;12.280;2024-03-29T00:38:57;96105.53;;;6.95
79756;BMP280;69239;50.678;12.280;2024-03-29T00:41:22;96110.00;;;6.94
79756;BMP280;69239;50.678;12.280;2024-03-29T00:43:47;96101.88;;;6.87
79756;BMP280;69239;50.678;12.280;2024-03-29T00:46:13;96111.69;;;6.90
79756;BMP280;69239;50.678;12.280;2024-03-29T00:48:39;96107.56;;;6.89
79756;BMP280;69239;50.678;12.280;2024-03-29T00:51:04;96103.59;;;6.83
79756;BMP280;69239;50.678;12.280;2024-03-29T00:53:29;96109.91;;;6.82
79756;BMP280;69239;50.678;12.280;2024-03-29T00:55:55;96103.03;;;6.77
79756;BMP280;69239;50.678;12.280;2024-03-29T00:58:20;96110.53;;;6.79
79756;BMP280;69239;50.678;12.280;2024-03-29T01:00:45;96100.09;;;6.79
79756;BMP280;69239;50.678;12.280;2024-03-29T01:03:12;96095.47;;;6.76
79756;BMP280;69239;50.678;12.280;2024-03-29T01:05:37;96090.56;;;6.74
79756;BMP280;69239;50.678;12.280;2024-03-29T01:08:03;96088.44;;;6.68
79756;BMP280;69239;50.678;12.280;2024-03-29T01:10:29;96082.00;;;6.65
79756;BMP280;69239;50.678;12.280;2024-03-29T01:12:54;96088.00;;;6.66
79756;BMP280;69239;50.678;12.280;2024-03-29T01:15:19;96079.88;;;6.58
79756;BMP280;69239;50.678;12.280;2024-03-29T01:17:44;96078.34;;;6.57
79756;BMP280;69239;50.678;12.280;2024-03-29T01:20:10;96084.19;;;6.54
79756;BMP280;69239;50.678;12.280;2024-03-29T01:22:36;96078.50;;;6.52
79756;BMP280;69239;50.678;12.280;2024-03-29T01:25:02;96079.16;;;6.49
79756;BMP280;69239;50.678;12.280;2024-03-29T01:27:28;96085.75;;;6.47
79756;BMP280;69239;50.678;12.280;2024-03-29T01:29:54;96091.31;;;6.45
79756;BMP280;69239;50.678;12.280;2024-03-29T01:32:20;96083.03;;;6.43
79756;BMP280;69239;50.678;12.280;2024-03-29T01:34:45;96086.72;;;6.42
79756;BMP280;69239;50.678;12.280;2024-03-29T01:37:11;96075.50;;;6.42
79756;BMP280;69239;50.678;12.280;2024-03-29T01:39:36;96069.81;;;6.40
79756;BMP280;69239;50.678;12.280;2024-03-29T01:42:01;96073.94;;;6.41
79756;BMP280;69239;50.678;12.280;2024-03-29T01:44:27;96072.41;;;6.40
79756;BMP280;69239;50.678;12.280;2024-03-29T01:46:52;96077.97;;;6.38
79756;BMP280;69239;50.678;12.280;2024-03-29T01:49:17;96080.41;;;6.43
79756;BMP280;69239;50.678;12.280;2024-03-29T01:51:43;96082.25;;;6.43
79756;BMP280;69239;50.678;12.280;2024-03-29T01:54:09;96077.34;;;6.41
79756;BMP280;69239;50.678;12.280;2024-03-29T01:56:37;96083.28;;;6.50
79756;BMP280;69239;50.678;12.280;2024-03-29T01:59:03;96087.88;;;6.53
79756;BMP280;69239;50.678;12.280;2024-03-29T02:01:30;96085.59;;;6.52
79756;BMP280;69239;50.678;12.280;2024-03-29T02:03:55;96084.81;;;6.51
79756;BMP280;69239;50.678;12.280;2024-03-29T02:06:21;96089.88;;;6.48
79756;BMP280;69239;50.678;12.280;2024-03-29T02:08:49;96092.09;;;6.46
79756;BMP280;69239;50.678;12.280;2024-03-29T02:11:16;96084.41;;;6.41
79756;BMP280;69239;50.678;12.280;2024-03-29T02:13:42;96078.28;;;6.37
79756;BMP280;69239;50.678;12.280;2024-03-29T02:16:07;96076.16;;;6.30
79756;BMP280;69239;50.678;12.280;2024-03-29T02:18:32;96080.31;;;6.31
79756;BMP280;69239;50.678;12.280;2024-03-29T02:20:58;96084.63;;;6.27
79756;BMP280;69239;50.678;12.280;2024-03-29T02:23:27;96091.09;;;6.21
79756;BMP280;69239;50.678;12.280;2024-03-29T02:25:53;96085.59;;;6.14
79756;BMP280;69239;50.678;12.280;2024-03-29T02:28:18;96095.41;;;6.17
79756;BMP280;69239;50.678;12.280;2024-03-29T02:30:44;96087.25;;;6.10
79756;BMP280;69239;50.678;12.280;2024-03-29T02:33:09;96090.50;;;6.15
79756;BMP280;69239;50.678;12.280;2024-03-29T02:35:35;96094.66;;;6.08
79756;BMP280;69239;50.678;12.280;2024-03-29T02:38:00;96105.56;;;6.10
79756;BMP280;69239;50.678;12.280;2024-03-29T02:40:25;96121.22;;;6.10
79756;BMP280;69239;50.678;12.280;2024-03-29T02:42:50;96115.22;;;6.09
79756;BMP280;69239;50.678;12.280;2024-03-29T02:45:16;96108.34;;;6.05
79756;BMP280;69239;50.678;12.280;2024-03-29T02:47:42;96108.78;;;6.07
79756;BMP280;69239;50.678;12.280;2024-03-29T02:50:10;96103.38;;;6.12
79756;BMP280;69239;50.678;12.280;2024-03-29T02:52:36;96092.94;;;6.12
79756;BMP280;69239;50.678;12.280;2024-03-29T02:55:01;96096.63;;;6.11
79756;BMP280;69239;50.678;12.280;2024-03-29T02:57:26;96099.25;;;6.11
79756;BMP280;69239;50.678;12.280;2024-03-29T02:59:52;96095.88;;;6.10
79756;BMP280;69239;50.678;12.280;2024-03-29T03:02:17;96099.25;;;6.11
79756;BMP280;69239;50.678;12.280;2024-03-29T03:04:42;96107.84;;;6.11
79756;BMP280;69239;50.678;12.280;2024-03-29T03:07:07;96102.94;;;6.10
79756;BMP280;69239;50.678;12.280;2024-03-29T03:09:51;96090.97;;;6.09
79756;BMP280;69239;50.678;12.280;2024-03-29T03:12:35;96094.50;;;6.13
79756;BMP280;69239;50.678;12.280;2024-03-29T03:15:00;96071.44;;;6.15
79756;BMP280;69239;50.678;12.280;2024-03-29T03:17:26;96051.16;;;6.12
79756;BMP280;69239;50.678;12.280;2024-03-29T03:19:52;96064.47;;;6.19
79756;BMP280;69239;50.678;12.280;2024-03-29T03:22:17;96068.66;;;6.20
79756;BMP280;69239;50.678;12.280;2024-03-29T03:24:42;96066.50;;;6.22
79756;BMP280;69239;50.678;12.280;2024-03-29T03:27:08;96071.72;;;6.22
79756;BMP280;69239;50.678;12.280;2024-03-29T03:29:33;96082.94;;;6.22
79756;BMP280;69239;50.678;12.280;2024-03-29T03:31:58;96067.56;;;6.21
79756;BMP280;69239;50.678;12.280;2024-03-29T03:34:23;96072.63;;;6.26
79756;BMP280;69239;50.678;12.280;2024-03-29T03:36:48;96066.78;;;6.29
79756;BMP280;69239;50.678;12.280;2024-03-29T03:39:14;96059.41;;;6.31
79756;BMP280;69239;50.678;12.280;2024-03-29T03:41:39;96058.75;;;6.34
79756;BMP280;69239;50.678;12.280;2024-03-29T03:44:04;96050.94;;;6.34
79756;BMP280;69239;50.678;12.280;2024-03-29T03:46:30;96050.75;;;6.39
79756;BMP280;69239;50.678;12.280;2024-03-29T03:48:55;96052.28;;;6.40
79756;BMP280;69239;50.678;12.280;2024-03-29T03:51:20;96062.13;;;6.43
79756;BMP280;69239;50.678;12.280;2024-03-29T03:53:45;96057.66;;;6.44
79756;BMP280;69239;50.678;12.280;2024-03-29T03:56:11;96062.22;;;6.47
79756;BMP280;69239;50.678;12.280;2024-03-29T03:58:36;96034.16;;;6.35
79756;BMP280;69239;50.678;12.280;2024-03-29T04:01:04;96050.09;;;6.51
79756;BMP280;69239;50.678;12.280;2024-03-29T04:03:30;96025.16;;;6.53
79756;BMP280;69239;50.678;12.280;2024-03-29T04:05:55;96017.78;;;6.55
79756;BMP280;69239;50.678;12.280;2024-03-29T04:08:20;96011.00;;;6.54
79756;BMP280;69239;50.678;12.280;2024-03-29T04:10:45;96000.25;;;6.56
79756;BMP280;69239;50.678;12.280;2024-03-29T04:13:12;96011.00;;;6.54
79756;BMP280;69239;50.678;12.280;2024-03-29T04:15:37;95994.44;;;6.50
79756;BMP280;69239;50.678;12.280;2024-03-29T04:18:02;96000.53;;;6.54
79756;BMP280;69239;50.678;12.280;2024-03-29T04:20:27;96008.88;;;6.56
79756;BMP280;69239;50.678;12.280;2024-03-29T04:22:53;96008.19;;;6.59
79756;BMP280;69239;50.678;12.280;2024-03-29T04:25:18;96004.09;;;6.58
79756;BMP280;69239;50.678;12.280;2024-03-29T04:27:43;95997.75;;;6.59
79756;BMP280;69239;50.678;12.280;2024-03-29T04:30:08;96022.78;;;6.60
79756;BMP280;69239;50.678;12.280;2024-03-29T04:32:34;96024.03;;;6.63
79756;BMP280;69239;50.678;12.280;2024-03-29T04:34:59;96017.41;;;6.66
79756;BMP280;69239;50.678;12.280;2024-03-29T04:37:24;96029.53;;;6.70
79756;BMP280;69239;50.678;12.280;2024-03-29T04:39:50;96039.25;;;6.70
79756;BMP280;69239;50.678;12.280;2024-03-29T04:42:17;96035.31;;;6.76
79756;BMP280;69239;50.678;12.280;2024-03-29T04:44:43;96041.63;;;6.83
79756;BMP280;69239;50.678;12.280;2024-03-29T04:47:08;96043.84;;;6.94
79756;BMP280;69239;50.678;12.280;2024-03-29T04:49:34;96043.44;;;7.04
79756;BMP280;69239;50.678;12.280;2024-03-29T04:52:04;96031.41;;;7.11
79756;BMP280;69239;50.678;12.280;2024-03-29T04:54:30;96042.19;;;7.31
79756;BMP280;69239;50.678;12.280;2024-03-29T04:56:55;96040.28;;;7.40
79756;BMP280;69239;50.678;12.280;2024-03-29T04:59:21;96036.47;;;7.49
79756;BMP280;69239;50.678;12.280;2024-03-29T05:01:49;96035.19;;;7.56
79756;BMP280;69239;50.678;12.280;2024-03-29T05:04:18;96052.22;;;7.62
79756;BMP280;69239;50.678;12.280;2024-03-29T05:06:53;96042.38;;;7.59
79756;BMP280;69239;50.678;12.280;2024-03-29T05:09:19;96054.63;;;7.67
79756;BMP280;69239;50.678;12.280;2024-03-29T05:11:44;96054.00;;;7.70
79756;BMP280;69239;50.678;12.280;2024-03-29T05:14:09;96051.72;;;7.68
79756;BMP280;69239;50.678;12.280;2024-03-29T05:16:35;96058.56;;;7.73
79756;BMP280;69239;50.678;12.280;2024-03-29T05:19:00;96059.34;;;7.73
79756;BMP280;69239;50.678;12.280;2024-03-29T05:21:25;96065.34;;;7.74
79756;BMP280;69239;50.678;12.280;2024-03-29T05:23:51;96070.16;;;7.72
79756;BMP280;69239;50.678;12.280;2024-03-29T05:26:16;96081.19;;;7.77
79756;BMP280;69239;50.678;12.280;2024-03-29T05:28:41;96079.03;;;7.79
79756;BMP280;69239;50.678;12.280;2024-03-29T05:31:14;96075.28;;;7.80
79756;BMP280;69239;50.678;12.280;2024-03-29T05:33:42;96081.75;;;7.83
79756;BMP280;69239;50.678;12.280;2024-03-29T05:36:08;96083.72;;;7.86
79756;BMP280;69239;50.678;12.280;2024-03-29T05:38:36;96070.97;;;7.85
79756;BMP280;69239;50.678;12.280;2024-03-29T05:41:01;96067.06;;;7.91
79756;BMP280;69239;50.678;12.280;2024-03-29T05:43:26;96057.00;;;7.93
79756;BMP280;69239;50.678;12.280;2024-03-29T05:45:52;96075.75;;;7.95
79756;BMP280;69239;50.678;12.280;2024-03-29T05:48:17;96063.13;;;7.97
79756;BMP280;69239;50.678;12.280;2024-03-29T05:50:44;96066.63;;;8.01
79756;BMP280;69239;50.678;12.280;2024-03-29T05:53:09;96072.41;;;8.06
79756;BMP280;69239;50.678;12.280;2024-03-29T05:55:35;96069.59;;;8.11
79756;BMP280;69239;50.678;12.280;2024-03-29T05:58:00;96077.56;;;8.15
79756;BMP280;69239;50.678;12.280;2024-03-29T06:00:25;96075.84;;;8.19
79756;BMP280;69239;50.678;12.280;2024-03-29T06:02:51;96074.06;;;8.23
79756;BMP280;69239;50.678;12.280;2024-03-29T06:05:16;96072.34;;;8.27
79756;BMP280;69239;50.678;12.280;2024-03-29T06:07:41;96071.81;;;8.34
79756;BMP280;69239;50.678;12.280;2024-03-29T06:10:07;96067.88;;;8.40
79756;BMP280;69239;50.678;12.280;2024-03-29T06:12:34;96066.13;;;8.44
79756;BMP280;69239;50.678;12.280;2024-03-29T06:15:00;96063.28;;;8.49
79756;BMP280;69239;50.678;12.280;2024-03-29T06:17:48;96071.78;;;8.58
79756;BMP280;69239;50.678;12.280;2024-03-29T06:20:13;96070.81;;;8.63
79756;BMP280;69239;50.678;12.280;2024-03-29T06:22:39;96064.59;;;8.67
79756;BMP280;69239;50.678;12.280;2024-03-29T06:25:04;96063.16;;;8.70
79756;BMP280;69239;50.678;12.280;2024-03-29T06:27:33;96056.47;;;8.72
79756;BMP280;69239;50.678;12.280;2024-03-29T06:29:58;96055.16;;;8.79
79756;BMP280;69239;50.678;12.280;2024-03-29T06:32:24;96047.84;;;8.84
79756;BMP280;69239;50.678;12.280;2024-03-29T06:34:50;96042.03;;;8.91
79756;BMP280;69239;50.678;12.280;2024-03-29T06:37:16;96060.59;;;8.98
79756;BMP280;69239;50.678;12.280;2024-03-29T06:39:42;96063.00;;;9.03
79756;BMP280;69239;50.678;12.280;2024-03-29T06:42:08;96061.97;;;9.07
79756;BMP280;69239;50.678;12.280;2024-03-29T06:44:34;96053.66;;;9.05
79756;BMP280;69239;50.678;12.280;2024-03-29T06:47:00;96063.19;;;9.10
79756;BMP280;69239;50.678;12.280;2024-03-29T06:49:25;96067.22;;;9.07
79756;BMP280;69239;50.678;12.280;2024-03-29T06:51:50;96062.16;;;9.15
79756;BMP280;69239;50.678;12.280;2024-03-29T06:54:16;96062.63;;;9.17
79756;BMP280;69239;50.678;12.280;2024-03-29T06:56:41;96073.97;;;9.21
79756;BMP280;69239;50.678;12.280;2024-03-29T06:59:06;96065.81;;;9.22
79756;BMP280;69239;50.678;12.280;2024-03-29T07:01:31;96061.50;;;9.30
79756;BMP280;69239;50.678;12.280;2024-03-29T07:03:57;96068.47;;;9.38
79756;BMP280;69239;50.678;12.280;2024-03-29T07:06:22;96059.16;;;9.41
79756;BMP280;69239;50.678;12.280;2024-03-29T07:08:48;96055.53;;;9.45
79756;BMP280;69239;50.678;12.280;2024-03-29T07:11:13;96055.69;;;9.52
79756;BMP280;69239;50.678;12.280;2024-03-29T07:13:38;96053.91;;;9.56
79756;BMP280;69239;50.678;12.280;2024-03-29T07:16:04;96078.41;;;9.60
79756;BMP280;69239;50.678;12.280;2024-03-29T07:18:29;96059.81;;;9.65
79756;BMP280;69239;50.678;12.280;2024-03-29T07:20:55;96067.34;;;9.67
79756;BMP280;69239;50.678;12.280;2024-03-29T07:23:20;96069.13;;;9.79
79756;BMP280;69239;50.678;12.280;2024-03-29T07:25:58;96061.00;;;9.84
79756;BMP280;69239;50.678;12.280;2024-03-29T07:28:24;96070.16;;;9.90
79756;BMP280;69239;50.678;12.280;2024-03-29T07:30:50;96081.72;;;10.01
79756;BMP280;69239;50.678;12.280;2024-03-29T07:33:15;96096.56;;;10.09
79756;BMP280;69239;50.678;12.280;2024-03-29T07:35:41;96090.38;;;10.17
79756;BMP280;69239;50.678;12.280;2024-03-29T07:38:06;96095.38;;;10.22
79756;BMP280;69239;50.678;12.280;2024-03-29T07:40:32;96098.59;;;10.31
79756;BMP280;69239;50.678;12.280;2024-03-29T07:42:57;96096.13;;;10.39
79756;BMP280;69239;50.678;12.280;2024-03-29T07:45:22;96097.00;;;10.43
79756;BMP280;69239;50.678;12.280;2024-03-29T07:47:48;96089.41;;;10.41
79756;BMP280;69239;50.678;12.280;2024-03-29T07:50:18;96087.72;;;10.49
79756;BMP280;69239;50.678;12.280;2024-03-29T07:52:45;96078.28;;;10.48
79756;BMP280;69239;50.678;12.280;2024-03-29T07:55:10;96091.19;;;10.53
79756;BMP280;69239;50.678;12.280;2024-03-29T07:57:35;96085.25;;;10.56
79756;BMP280;69239;50.678;12.280;2024-03-29T08:00:00;96086.09;;;10.60
79756;BMP280;69239;50.678;12.280;2024-03-29T08:02:26;96079.44;;;10.66
79756;BMP280;69239;50.678;12.280;2024-03-29T08:04:54;96064.69;;;10.77
79756;BMP280;69239;50.678;12.280;2024-03-29T08:07:19;96067.25;;;10.93
79756;BMP280;69239;50.678;12.280;2024-03-29T08:09:44;96075.91;;;11.13
79756;BMP280;69239;50.678;12.280;2024-03-29T08:12:09;96066.97;;;11.37
79756;BMP280;69239;50.678;12.280;2024-03-29T08:14:35;96053.41;;;11.57
79756;BMP280;69239;50.678;12.280;2024-03-29T08:17:00;96051.06;;;11.52
79756;BMP280;69239;50.678;12.280;2024-03-29T08:19:29;96055.16;;;11.73
79756;BMP280;69239;50.678;12.280;2024-03-29T08:21:55;96071.72;;;11.93
79756;BMP280;69239;50.678;12.280;2024-03-29T08:24:20;96074.41;;;12.22
79756;BMP280;69239;50.678;12.280;2024-03-29T08:26:45;96065.78;;;12.52
79756;BMP280;69239;50.678;12.280;2024-03-29T08:29:10;96067.72;;;12.81
79756;BMP280;69239;50.678;12.280;2024-03-29T08:31:35;96072.25;;;13.14
79756;BMP280;69239;50.678;12.280;2024-03-29T08:34:01;96063.06;;;13.38
79756;BMP280;69239;50.678;12.280;2024-03-29T08:36:26;96062.91;;;13.65
79756;BMP280;69239;50.678;12.280;2024-03-29T08:38:52;96063.91;;;13.86
79756;BMP280;69239;50.678;12.280;2024-03-29T08:41:17;96059.53;;;14.12
79756;BMP280;69239;50.678;12.280;2024-03-29T08:43:42;96050.59;;;14.34
79756;BMP280;69239;50.678;12.280;2024-03-29T08:46:07;96043.09;;;14.47
79756;BMP280;69239;50.678;12.280;2024-03-29T08:48:34;96046.16;;;14.56
79756;BMP280;69239;50.678;12.280;2024-03-29T08:50:59;96021.16;;;14.46
79756;BMP280;69239;50.678;12.280;2024-03-29T08:53:24;96026.09;;;14.48
79756;BMP280;69239;50.678;12.280;2024-03-29T08:55:52;96033.25;;;14.44
79756;BMP280;69239;50.678;12.280;2024-03-29T08:58:17;96023.44;;;14.48
79756;BMP280;69239;50.678;12.280;2024-03-29T09:00:52;96018.16;;;14.48
79756;BMP280;69239;50.678;12.280;2024-03-29T09:03:20;96015.16;;;14.53
79756;BMP280;69239;50.678;12.280;2024-03-29T09:05:45;96013.66;;;14.59
79756;BMP280;69239;50.678;12.280;2024-03-29T09:08:11;96016.00;;;14.71
79756;BMP280;69239;50.678;12.280;2024-03-29T09:10:36;96012.22;;;14.79
79756;BMP280;69239;50.678;12.280;2024-03-29T09:13:02;96006.94;;;14.86
79756;BMP280;69239;50.678;12.280;2024-03-29T09:15:28;95992.19;;;14.93
79756;BMP280;69239;50.678;12.280;2024-03-29T09:17:53;95993.75;;;15.01
79756;BMP280;69239;50.678;12.280;2024-03-29T09:20:20;96010.41;;;15.12
79756;BMP280;69239;50.678;12.280;2024-03-29T09:22:45;96011.19;;;15.23
79756;BMP280;69239;50.678;12.280;2024-03-29T09:25:10;96018.38;;;15.33
79756;BMP280;69239;50.678;12.280;2024-03-29T09:27:39;96014.63;;;15.34
79756;BMP280;69239;50.678;12.280;2024-03-29T09:30:08;96019.16;;;15.37
79756;BMP280;69239;50.678;12.280;2024-03-29T09:32:34;96003.59;;;15.32
79756;BMP280;69239;50.678;12.280;2024-03-29T09:35:00;96016.13;;;15.42
79756;BMP280;69239;50.678;12.280;2024-03-29T09:37:25;96004.00;;;15.55
79756;BMP280;69239;50.678;12.280;2024-03-29T09:39:50;96014.59;;;15.70
79756;BMP280;69239;50.678;12.280;2024-03-29T09:42:16;96009.31;;;15.70
79756;BMP280;69239;50.678;12.280;2024-03-29T09:44:44;95998.69;;;15.70
79756;BMP280;69239;50.678;12.280;2024-03-29T09:47:10;96000.59;;;15.76
79756;BMP280;69239;50.678;12.280;2024-03-29T09:49:38;95993.38;;;15.70
79756;BMP280;69239;50.678;12.280;2024-03-29T09:52:04;95994.53;;;15.62
79756;BMP280;69239;50.678;12.280;2024-03-29T09:54:30;95994.53;;;15.62
79756;BMP280;69239;50.678;12.280;2024-03-29T09:56:56;95991.13;;;15.58
79756;BMP280;69239;50.678;12.280;2024-03-29T09:59:22;95986.56;;;15.54
79756;BMP280;69239;50.678;12.280;2024-03-29T10:01:48;95996.06;;;15.48
79756;BMP280;69239;50.678;12.280;2024-03-29T10:04:15;95996.44;;;15.50
79756;BMP280;69239;50.678;12.280;2024-03-29T10:06:44;96000.59;;;15.51
79756;BMP280;69239;50.678;12.280;2024-03-29T10:09:11;95994.16;;;15.52
79756;BMP280;69239;50.678;12.280;2024-03-29T10:11:37;95984.31;;;15.49
79756;BMP280;69239;50.678;12.280;2024-03-29T10:14:03;95986.19;;;15.42
79756;BMP280;69239;50.678;12.280;2024-03-29T10:16:32;95999.44;;;15.31
79756;BMP280;69239;50.678;12.280;2024-03-29T10:18:58;96006.66;;;15.27
79756;BMP280;69239;50.678;12.280;2024-03-29T10:21:27;96016.50;;;15.23
79756;BMP280;69239;50.678;12.280;2024-03-29T10:23:52;96014.59;;;15.20
79756;BMP280;69239;50.678;12.280;2024-03-29T10:26:17;96025.22;;;15.27
79756;BMP280;69239;50.678;12.280;2024-03-29T10:28:43;96038.06;;;15.25
79756;BMP280;69239;50.678;12.280;2024-03-29T10:31:08;96023.69;;;15.19
79756;BMP280;69239;50.678;12.280;2024-03-29T10:33:34;96023.66;;;15.12
79756;BMP280;69239;50.678;12.280;2024-03-29T10:36:00;96034.66;;;15.07
79756;BMP280;69239;50.678;12.280;2024-03-29T10:38:26;96020.22;;;15.04
79756;BMP280;69239;50.678;12.280;2024-03-29T10:40:52;96026.66;;;15.00
79756;BMP280;69239;50.678;12.280;2024-03-29T10:43:19;96012.25;;;14.94
79756;BMP280;69239;50.678;12.280;2024-03-29T10:45:46;96021.34;;;14.93
79756;BMP280;69239;50.678;12.280;2024-03-29T10:48:14;96021.34;;;14.93
79756;BMP280;69239;50.678;12.280;2024-03-29T10:50:41;96025.50;;;14.90
79756;BMP280;69239;50.678;12.280;2024-03-29T10:53:08;96033.44;;;14.86
79756;BMP280;69239;50.678;12.280;2024-03-29T10:55:34;96033.41;;;14.79
79756;BMP280;69239;50.678;12.280;2024-03-29T10:58:04;96047.81;;;14.78
79756;BMP280;69239;50.678;12.280;2024-03-29T11:00:33;96046.22;;;14.70
79756;BMP280;69239;50.678;12.280;2024-03-29T11:03:14;96041.69;;;14.64
79756;BMP280;69239;50.678;12.280;2024-03-29T11:05:47;96054.50;;;14.58
79756;BMP280;69239;50.678;12.280;2024-03-29T11:08:14;96052.22;;;14.53
79756;BMP280;69239;50.678;12.280;2024-03-29T11:10:44;96056.34;;;14.47
79756;BMP280;69239;50.678;12.280;2024-03-29T11:13:19;96058.22;;;14.43
79756;BMP280;69239;50.678;12.280;2024-03-29T11:15:49;96074.44;;;14.38
79756;BMP280;69239;50.678;12.280;2024-03-29T11:18:16;96083.84;;;14.32
79756;BMP280;69239;50.678;12.280;2024-03-29T11:20:45;96106.13;;;14.27
79756;BMP280;69239;50.678;12.280;2024-03-29T11:23:15;96091.38;;;14.23
79756;BMP280;69239;50.678;12.280;2024-03-29T11:25:42;96100.38;;;14.14
79756;BMP280;69239;50.678;12.280;2024-03-29T11:28:09;96117.34;;;14.10
79756;BMP280;69239;50.678;12.280;2024-03-29T11:30:42;96121.09;;;14.05
79756;BMP280;69239;50.678;12.280;2024-03-29T11:33:08;96098.75;;;13.99
79756;BMP280;69239;50.678;12.280;2024-03-29T11:35:39;96101.75;;;13.94
79756;BMP280;69239;50.678;12.280;2024-03-29T11:38:04;96109.25;;;13.92
79756;BMP280;69239;50.678;12.280;2024-03-29T11:40:30;96111.50;;;13.90
79756;BMP280;69239;50.678;12.280;2024-03-29T11:42:55;96112.63;;;13.89
79756;BMP280;69239;50.678;12.280;2024-03-29T11:45:24;96117.16;;;13.88
79756;BMP280;69239;50.678;12.280;2024-03-29T11:47:54;96105.44;;;13.86
79756;BMP280;69239;50.678;12.280;2024-03-29T11:50:19;96114.84;;;13.83
79756;BMP280;69239;50.678;12.280;2024-03-29T11:52:45;96094.84;;;13.86
79756;BMP280;69239;50.678;12.280;2024-03-29T11:55:10;96093.75;;;13.87
79756;BMP280;69239;50.678;12.280;2024-03-29T11:57:35;96088.75;;;13.82
79756;BMP280;69239;50.678;12.280;2024-03-29T12:00:05;96085.75;;;13.80
79756;BMP280;69239;50.678;12.280;2024-03-29T12:02:31;96076.72;;;13.88
79756;BMP280;69239;50.678;12.280;2024-03-29T12:04:56;96070.00;;;13.94
79756;BMP280;69239;50.678;12.280;2024-03-29T12:07:23;96075.31;;;14.01
79756;BMP280;69239;50.678;12.280;2024-03-29T12:09:48;96081.41;;;14.05
79756;BMP280;69239;50.678;12.280;2024-03-29T12:12:13;96069.69;;;14.06
79756;BMP280;69239;50.678;12.280;2024-03-29T12:14:42;96076.16;;;14.12
79756;BMP280;69239;50.678;12.280;2024-03-29T12:17:10;96066.75;;;14.15
79756;BMP280;69239;50.678;12.280;2024-03-29T12:19:36;96059.59;;;14.26
79756;BMP280;69239;50.678;12.280;2024-03-29T12:22:04;96058.19;;;14.36
79756;BMP280;69239;50.678;12.280;2024-03-29T12:24:30;96056.38;;;14.54
79756;BMP280;69239;50.678;12.280;2024-03-29T12:26:57;96050.38;;;14.68
79756;BMP280;69239;50.678;12.280;2024-03-29T12:29:23;96054.22;;;14.77
79756;BMP280;69239;50.678;12.280;2024-03-29T12:32:00;96032.28;;;14.84
79756;BMP280;69239;50.678;12.280;2024-03-29T12:34:26;96019.06;;;14.87
79756;BMP280;69239;50.678;12.280;2024-03-29T12:36:51;96026.63;;;14.89
79756;BMP280;69239;50.678;12.280;2024-03-29T12:39:17;96030.41;;;14.92
79756;BMP280;69239;50.678;12.280;2024-03-29T12:41:42;96030.44;;;14.99
79756;BMP280;69239;50.678;12.280;2024-03-29T12:44:09;96015.69;;;15.05
79756;BMP280;69239;50.678;12.280;2024-03-29T12:46:36;96027.47;;;15.18
79756;BMP280;69239;50.678;12.280;2024-03-29T12:49:02;96034.28;;;15.40
79756;BMP280;69239;50.678;12.280;2024-03-29T12:51:28;96020.28;;;15.65
79756;BMP280;69239;50.678;12.280;2024-03-29T12:54:01;96023.69;;;16.04
79756;BMP280;69239;50.678;12.280;2024-03-29T12:56:28;96013.75;;;16.33
79756;BMP280;69239;50.678;12.280;2024-03-29T12:58:53;96011.84;;;16.34
79756;BMP280;69239;50.678;12.280;2024-03-29T13:01:19;95997.44;;;16.24
79756;BMP280;69239;50.678;12.280;2024-03-29T13:03:45;95974.28;;;16.24
79756;BMP280;69239;50.678;12.280;2024-03-29T13:06:10;95981.88;;;16.33
79756;BMP280;69239;50.678;12.280;2024-03-29T13:08:35;95993.03;;;16.76
79756;BMP280;69239;50.678;12.280;2024-03-29T13:11:01;96003.41;;;18.08
79756;BMP280;69239;50.678;12.280;2024-03-29T13:13:26;95996.69;;;19.58
79756;BMP280;69239;50.678;12.280;2024-03-29T13:15:51;95990.00;;;20.65
79756;BMP280;69239;50.678;12.280;2024-03-29T13:18:17;95993.03;;;21.32
79756;BMP280;69239;50.678;12.280;2024-03-29T13:20:43;95991.53;;;21.88
79756;BMP280;69239;50.678;12.280;2024-03-29T13:23:09;95985.22;;;21.82
79756;BMP280;69239;50.678;12.280;2024-03-29T13:25:34;95992.31;;;21.44
79756;BMP280;69239;50.678;12.280;2024-03-29T13:27:59;95980.56;;;21.70
79756;BMP280;69239;50.678;12.280;2024-03-29T13:30:26;95996.44;;;21.77
79756;BMP280;69239;50.678;12.280;2024-03-29T13:32:53;95968.97;;;22.53
79756;BMP280;69239;50.678;12.280;2024-03-29T13:35:18;95959.34;;;23.37
79756;BMP280;69239;50.678;12.280;2024-03-29T13:37:47;95953.09;;;23.83
79756;BMP280;69239;50.678;12.280;2024-03-29T13:40:13;95965.16;;;24.41
79756;BMP280;69239;50.678;12.280;2024-03-29T13:42:39;95962.97;;;24.66
79756;BMP280;69239;50.678;12.280;2024-03-29T13:45:05;95966.09;;;24.56
79756;BMP280;69239;50.678;12.280;2024-03-29T13:47:36;95971.91;;;23.62
79756;BMP280;69239;50.678;12.280;2024-03-29T13:50:01;95968.81;;;22.94
79756;BMP280;69239;50.678;12.280;2024-03-29T13:52:26;95956.09;;;22.22
79756;BMP280;69239;50.678;12.280;2024-03-29T13:54:53;95964.47;;;21.70
79756;BMP280;69239;50.678;12.280;2024-03-29T13:57:19;95960.50;;;21.17